Time;durP1;ratioP1;P1;durP2;ratioP2;P2;SDS_P1;SDS_P2;PMS_P1;PMS_P2;Temp;Humidity;BMP_temperature;BMP_pressure;BME280_temperature;BME280_humidity;BME280_pressure;Samples;Min_cycle;Max_cycle;Signal;HPM_P1;HPM_P2
2022/01/25 00:09:32;;;;;;;;;;;20.30;43.20;;;;;;5118633;27;19923;-44
2022/01/25 00:25:58;;;;;;;;;;;20.30;43.10;;;;;;5130547;27;19974;-44
2022/01/25 00:28:38;;;;;;;;;;;20.30;43.10;;;;;;5123118;27;20014;-49
2022/01/25 00:31:10;;;;;;;;;;;20.30;43.00;;;;;;5141631;27;20375;-47
2022/01/25 00:33:37;;;;;;;;;;;20.30;43.00;;;;;;5115817;27;20001;-44
2022/01/25 00:36:04;;;;;;;;;;;20.30;43.00;;;;;;5114556;27;19955;-44
2022/01/25 00:38:31;;;;;;;;;;;20.30;43.00;;;;;;5118387;27;19928;-43
2022/01/25 00:40:59;;;;;;;;;;;20.30;43.00;;;;;;5119987;27;20374;-47
2022/01/25 00:43:27;;;;;;;;;;;20.30;42.90;;;;;;5131579;27;20281;-43
2022/01/25 00:45:57;;;;;;;;;;;20.30;42.90;;;;;;5120520;27;20026;-43
2022/01/25 00:48:33;;;;;;;;;;;20.20;42.90;;;;;;5097893;28;19927;-44
2022/01/25 00:51:16;;;;;;;;;;;20.20;42.80;;;;;;5109448;27;19930;-44
2022/01/25 00:53:58;;;;;;;;;;;20.30;42.90;;;;;;5111885;27;20400;-44
2022/01/25 00:56:27;;;;;;;;;;;20.30;42.80;;;;;;5145578;27;20415;-43
2022/01/25 00:58:53;;;;;;;;;;;20.20;42.80;;;;;;5128667;27;19927;-46
2022/01/25 01:01:21;;;;;;;;;;;20.30;42.80;;;;;;5114738;27;20030;-46
2022/01/25 01:03:47;;;;;;;;;;;20.20;42.80;;;;;;5093513;28;19954;-43
2022/01/25 01:06:15;;;;;;;;;;;20.30;42.80;;;;;;5141983;27;20285;-46
2022/01/25 01:08:42;;;;;;;;;;;20.30;42.80;;;;;;5114788;27;20292;-44
2022/01/25 01:11:12;;;;;;;;;;;20.20;42.70;;;;;;5107800;27;19927;-43
2022/01/25 01:14:02;;;;;;;;;;;20.20;42.70;;;;;;5131910;27;20042;-44
2022/01/25 01:30:31;;;;;;;;;;;20.20;42.60;;;;;;5148048;27;19931;-46
2022/01/25 01:41:49;;;;;;;;;;;20.20;42.60;;;;;;5095413;27;19930;-43
2022/01/25 01:44:22;;;;;;;;;;;20.20;42.60;;;;;;5142058;27;19977;-43
2022/01/25 01:49:41;;;;;;;;;;;20.20;42.60;;;;;;5113721;27;19927;-44
2022/01/25 01:52:08;;;;;;;;;;;20.20;42.60;;;;;;5138227;27;19923;-42
2022/01/25 01:54:35;;;;;;;;;;;20.20;42.60;;;;;;5124387;27;19992;-45
2022/01/25 01:57:01;;;;;;;;;;;20.20;42.60;;;;;;5111420;28;19970;-44
2022/01/25 01:59:28;;;;;;;;;;;20.20;42.60;;;;;;5130186;27;20300;-42
2022/01/25 02:01:56;;;;;;;;;;;20.20;42.50;;;;;;5104583;27;19980;-46
2022/01/25 02:04:23;;;;;;;;;;;20.20;42.60;;;;;;5127520;28;20402;-45
2022/01/25 02:06:49;;;;;;;;;;;20.20;42.50;;;;;;5112453;27;20030;-44
2022/01/25 02:09:16;;;;;;;;;;;20.20;42.50;;;;;;5152965;27;20299;-43
2022/01/25 02:11:43;;;;;;;;;;;20.20;42.50;;;;;;5133909;27;20033;-44
2022/01/25 02:14:12;;;;;;;;;;;20.10;42.40;;;;;;5097572;28;19981;-48
2022/01/25 02:16:55;;;;;;;;;;;20.20;42.50;;;;;;5095681;28;20373;-44
2022/01/25 02:22:29;;;;;;;;;;;20.20;42.50;;;;;;5148458;27;20373;-45
2022/01/25 02:24:56;;;;;;;;;;;20.20;42.50;;;;;;5130398;28;19920;-46
2022/01/25 02:27:23;;;;;;;;;;;20.20;42.40;;;;;;5132238;27;19920;-45
2022/01/25 02:29:49;;;;;;;;;;;20.20;42.40;;;;;;5126970;28;19930;-43
2022/01/25 02:32:16;;;;;;;;;;;20.20;42.40;;;;;;5111067;28;19980;-42
2022/01/25 02:34:43;;;;;;;;;;;20.20;42.40;;;;;;5148499;27;20296;-45
2022/01/25 02:37:11;;;;;;;;;;;20.20;42.40;;;;;;5097667;28;19970;-49
2022/01/25 02:39:39;;;;;;;;;;;20.20;42.40;;;;;;5093463;28;19927;-44
2022/01/25 02:42:06;;;;;;;;;;;20.10;42.30;;;;;;5099737;28;19924;-45
2022/01/25 02:44:34;;;;;;;;;;;20.20;42.40;;;;;;5143779;27;19931;-42
2022/01/25 02:49:45;;;;;;;;;;;20.10;42.20;;;;;;5127959;28;19925;-43
2022/01/25 02:52:14;;;;;;;;;;;20.10;42.20;;;;;;5116796;28;19967;-46
2022/01/25 02:54:41;;;;;;;;;;;20.10;42.20;;;;;;5127827;27;19949;-45
2022/01/25 02:57:08;;;;;;;;;;;20.10;42.20;;;;;;5108308;28;19928;-43
2022/01/25 02:59:35;;;;;;;;;;;20.10;42.20;;;;;;5141861;27;19970;-48
2022/01/25 03:02:02;;;;;;;;;;;20.10;42.20;;;;;;5112719;28;19970;-43
2022/01/25 03:04:29;;;;;;;;;;;20.10;42.20;;;;;;5122126;28;19928;-44
2022/01/25 03:06:55;;;;;;;;;;;20.10;42.20;;;;;;5118742;28;19931;-47
2022/01/25 03:09:23;;;;;;;;;;;20.10;42.20;;;;;;5141860;27;19919;-43
2022/01/25 03:11:53;;;;;;;;;;;20.10;42.20;;;;;;5110582;28;20023;-44
2022/01/25 03:14:22;;;;;;;;;;;20.10;42.20;;;;;;5109959;28;19923;-43
2022/01/25 03:17:04;;;;;;;;;;;20.10;42.20;;;;;;5115702;28;20303;-47
2022/01/25 03:19:46;;;;;;;;;;;20.10;42.20;;;;;;5130001;27;19924;-43
2022/01/25 03:22:17;;;;;;;;;;;20.10;42.20;;;;;;5111703;27;19972;-43
2022/01/25 03:24:45;;;;;;;;;;;20.10;42.20;;;;;;5128245;27;19927;-47
2022/01/25 03:27:12;;;;;;;;;;;20.10;42.20;;;;;;5111838;27;20268;-42
2022/01/25 03:29:39;;;;;;;;;;;20.10;42.10;;;;;;5126878;27;19927;-42
2022/01/25 03:32:06;;;;;;;;;;;20.10;42.10;;;;;;5158128;27;19923;-44
2022/01/25 03:34:33;;;;;;;;;;;20.10;42.10;;;;;;5158889;27;19968;-48
2022/01/25 03:37:00;;;;;;;;;;;20.10;42.10;;;;;;5124048;27;19962;-45
2022/01/25 03:39:26;;;;;;;;;;;20.10;42.10;;;;;;5117582;27;20376;-43
2022/01/25 03:41:54;;;;;;;;;;;20.10;42.10;;;;;;5124020;27;19923;-42
2022/01/25 03:44:21;;;;;;;;;;;20.10;42.10;;;;;;5116193;27;19923;-43
2022/01/25 03:47:00;;;;;;;;;;;20.10;42.00;;;;;;5113418;27;19927;-41
2022/01/25 03:52:13;;;;;;;;;;;20.10;42.00;;;;;;5114396;27;19969;-44
2022/01/25 03:54:40;;;;;;;;;;;20.10;42.00;;;;;;5103257;27;19945;-46
2022/01/25 03:57:08;;;;;;;;;;;20.10;42.10;;;;;;5122888;27;19978;-43
2022/01/25 03:59:35;;;;;;;;;;;20.10;42.00;;;;;;5097707;27;19927;-47
2022/01/25 04:02:02;;;;;;;;;;;20.10;42.00;;;;;;5133177;27;19923;-43
2022/01/25 04:04:30;;;;;;;;;;;20.10;42.00;;;;;;5113887;27;19927;-48
2022/01/25 04:06:57;;;;;;;;;;;20.10;42.00;;;;;;5125305;27;20089;-47
2022/01/25 04:09:24;;;;;;;;;;;20.10;42.00;;;;;;5111841;27;20019;-46
2022/01/25 04:11:50;;;;;;;;;;;20.10;42.00;;;;;;5116032;27;19927;-44
2022/01/25 04:14:18;;;;;;;;;;;20.10;41.90;;;;;;5116649;27;19980;-42
2022/01/25 04:16:52;;;;;;;;;;;20.10;41.90;;;;;;5127727;27;19952;-43
2022/01/25 04:19:29;;;;;;;;;;;20.10;41.90;;;;;;5128354;27;20391;-47
2022/01/25 04:24:45;;;;;;;;;;;20.10;42.00;;;;;;5114156;27;19928;-45
2022/01/25 04:27:12;;;;;;;;;;;20.10;41.90;;;;;;5116418;27;19928;-44
2022/01/25 04:29:40;;;;;;;;;;;20.10;41.90;;;;;;5129046;27;19924;-44
2022/01/25 04:32:07;;;;;;;;;;;20.10;41.90;;;;;;5151827;27;19928;-46
2022/01/25 04:34:44;;;;;;;;;;;20.10;41.90;;;;;;5149637;27;19924;-42
2022/01/25 04:53:43;;;;;;;;;;;20.10;41.80;;;;;;5132177;27;19976;-44
2022/01/25 04:56:16;;;;;;;;;;;20.10;41.80;;;;;;5132156;27;20486;-44
2022/01/25 04:58:50;;;;;;;;;;;20.10;41.80;;;;;;5113876;27;20420;-46
2022/01/25 05:01:19;;;;;;;;;;;20.10;41.80;;;;;;5126401;27;19927;-44
2022/01/25 05:03:57;;;;;;;;;;;20.10;41.80;;;;;;5114306;27;20375;-42
2022/01/25 05:06:25;;;;;;;;;;;20.10;41.70;;;;;;5136076;27;20527;-45
2022/01/25 05:08:54;;;;;;;;;;;20.10;41.70;;;;;;5113939;27;20387;-42
2022/01/25 05:11:28;;;;;;;;;;;20.10;41.70;;;;;;5113451;27;19923;-43
2022/01/25 05:14:09;;;;;;;;;;;20.10;41.70;;;;;;5108888;28;19932;-47
2022/01/25 05:16:47;;;;;;;;;;;20.10;41.80;;;;;;5143603;27;19929;-46
2022/01/25 05:19:24;;;;;;;;;;;20.10;41.80;;;;;;5113916;27;19930;-42
2022/01/25 05:22:04;;;;;;;;;;;20.10;41.80;;;;;;5116807;27;19937;-44
2022/01/25 05:24:31;;;;;;;;;;;20.10;41.80;;;;;;5113294;27;19984;-44
2022/01/25 05:26:58;;;;;;;;;;;20.10;41.80;;;;;;5108232;27;20344;-42
2022/01/25 05:29:25;;;;;;;;;;;20.10;41.80;;;;;;5131333;27;19923;-44
2022/01/25 05:31:53;;;;;;;;;;;20.10;41.90;;;;;;5123532;27;20301;-45
2022/01/25 05:34:20;;;;;;;;;;;20.10;41.80;;;;;;5115189;27;19928;-43
2022/01/25 05:36:46;;;;;;;;;;;20.10;41.80;;;;;;5114447;27;20491;-47
2022/01/25 05:39:17;;;;;;;;;;;20.10;41.80;;;;;;5114228;27;19956;-45
2022/01/25 05:41:46;;;;;;;;;;;20.10;41.80;;;;;;5112787;27;19931;-42
2022/01/25 05:47:07;;;;;;;;;;;20.10;41.90;;;;;;5097197;27;19958;-44
2022/01/25 05:49:34;;;;;;;;;;;20.10;41.90;;;;;;5131123;27;20376;-44
2022/01/25 05:52:01;;;;;;;;;;;20.10;41.90;;;;;;5114317;27;20329;-43
2022/01/25 05:54:28;;;;;;;;;;;20.10;41.80;;;;;;5131988;27;19949;-47
2022/01/25 05:56:54;;;;;;;;;;;20.10;41.80;;;;;;5131510;27;19995;-46
2022/01/25 05:59:21;;;;;;;;;;;20.10;41.90;;;;;;5125861;27;19927;-43
2022/01/25 06:01:49;;;;;;;;;;;20.10;41.90;;;;;;5109678;27;20388;-45
2022/01/25 06:04:17;;;;;;;;;;;20.10;41.80;;;;;;5131626;27;20280;-42
2022/01/25 06:06:44;;;;;;;;;;;20.10;41.90;;;;;;5132401;28;19927;-49
2022/01/25 06:09:10;;;;;;;;;;;20.10;41.90;;;;;;5136821;27;19935;-47
2022/01/25 06:11:37;;;;;;;;;;;20.10;41.90;;;;;;5126942;28;20127;-43
2022/01/25 06:14:04;;;;;;;;;;;20.10;41.90;;;;;;5126622;28;19963;-47
2022/01/25 06:16:31;;;;;;;;;;;20.10;41.90;;;;;;5131524;28;19924;-45
2022/01/25 06:18:58;;;;;;;;;;;20.10;41.90;;;;;;5130065;27;20293;-45
2022/01/25 06:21:26;;;;;;;;;;;20.10;41.90;;;;;;5092274;28;19996;-44
2022/01/25 06:23:52;;;;;;;;;;;20.10;41.90;;;;;;5133627;27;19924;-46
2022/01/25 06:26:19;;;;;;;;;;;20.10;41.90;;;;;;5092069;28;20461;-44
2022/01/25 06:28:46;;;;;;;;;;;20.10;41.90;;;;;;5128201;27;20332;-43
2022/01/25 06:31:15;;;;;;;;;;;20.10;41.90;;;;;;5129481;28;20330;-45
2022/01/25 06:33:42;;;;;;;;;;;20.10;41.90;;;;;;5125612;27;20333;-45
2022/01/25 06:36:09;;;;;;;;;;;20.10;41.90;;;;;;5134134;27;19922;-47
2022/01/25 06:38:37;;;;;;;;;;;20.10;41.90;;;;;;5136137;27;19942;-44
2022/01/25 06:41:04;;;;;;;;;;;20.10;41.90;;;;;;5129833;28;19971;-45
2022/01/25 06:43:31;;;;;;;;;;;20.10;41.90;;;;;;5134466;27;19924;-44
2022/01/25 06:46:03;;;;;;;;;;;20.10;41.90;;;;;;5099863;28;19931;-46
2022/01/25 06:48:30;;;;;;;;;;;20.10;41.90;;;;;;5112389;27;19926;-45
2022/01/25 06:50:57;;;;;;;;;;;20.10;41.90;;;;;;5132992;27;19923;-46
2022/01/25 06:53:24;;;;;;;;;;;20.10;41.90;;;;;;5118506;28;19923;-44
2022/01/25 06:55:52;;;;;;;;;;;20.10;41.80;;;;;;5115191;27;19934;-47
2022/01/25 06:58:20;;;;;;;;;;;20.10;41.90;;;;;;5120282;27;19923;-47
2022/01/25 07:00:46;;;;;;;;;;;20.10;41.80;;;;;;5131604;27;20023;-42
2022/01/25 07:03:13;;;;;;;;;;;20.10;41.90;;;;;;5109680;27;19938;-42
2022/01/25 07:05:40;;;;;;;;;;;20.10;41.90;;;;;;5123172;27;19977;-46
2022/01/25 07:08:07;;;;;;;;;;;20.10;41.90;;;;;;5110815;27;20429;-45
2022/01/25 07:10:34;;;;;;;;;;;20.10;41.90;;;;;;5131089;27;20026;-49
2022/01/25 07:13:02;;;;;;;;;;;20.10;41.90;;;;;;5149208;27;19931;-43
2022/01/25 07:15:28;;;;;;;;;;;20.10;41.90;;;;;;5114680;27;20283;-46
2022/01/25 07:17:55;;;;;;;;;;;20.10;41.90;;;;;;5110416;27;19935;-45
2022/01/25 07:20:22;;;;;;;;;;;20.10;41.90;;;;;;5114833;27;19923;-48
2022/01/25 07:22:49;;;;;;;;;;;20.10;41.80;;;;;;5115016;27;19931;-44
2022/01/25 07:25:16;;;;;;;;;;;20.10;41.90;;;;;;5114695;27;20014;-43
2022/01/25 07:27:43;;;;;;;;;;;20.10;41.90;;;;;;5109774;27;20035;-47
2022/01/25 07:30:11;;;;;;;;;;;20.10;41.80;;;;;;5114179;27;20415;-48
2022/01/25 07:32:38;;;;;;;;;;;20.10;41.80;;;;;;5130566;27;19930;-47
2022/01/25 07:35:05;;;;;;;;;;;20.10;41.90;;;;;;5114236;27;19930;-46
2022/01/25 07:37:32;;;;;;;;;;;20.10;41.80;;;;;;5130963;27;19972;-44
2022/01/25 07:39:58;;;;;;;;;;;20.10;41.80;;;;;;5112464;27;19963;-49
2022/01/25 07:42:27;;;;;;;;;;;20.10;41.80;;;;;;5132759;27;19933;-46
2022/01/25 07:44:54;;;;;;;;;;;20.10;41.80;;;;;;5131788;27;19923;-49
2022/01/25 07:47:22;;;;;;;;;;;20.10;41.80;;;;;;5124364;27;19930;-44
2022/01/25 07:49:50;;;;;;;;;;;20.10;41.80;;;;;;5113950;27;19923;-45
2022/01/25 07:52:17;;;;;;;;;;;20.10;41.80;;;;;;5131409;27;19938;-44
2022/01/25 07:54:43;;;;;;;;;;;20.10;41.80;;;;;;5112378;27;19927;-52
2022/01/25 07:57:10;;;;;;;;;;;20.10;41.80;;;;;;5112114;27;20026;-49
2022/01/25 07:59:37;;;;;;;;;;;20.10;41.60;;;;;;5111306;27;20480;-52
2022/01/25 08:02:04;;;;;;;;;;;20.10;41.30;;;;;;5111088;27;19934;-52
2022/01/25 08:04:32;;;;;;;;;;;20.10;41.50;;;;;;5096755;27;20004;-52
2022/01/25 08:06:59;;;;;;;;;;;20.10;40.80;;;;;;5106591;27;19931;-53
2022/01/25 08:09:26;;;;;;;;;;;20.10;40.60;;;;;;5107326;27;19927;-48
2022/01/25 08:11:53;;;;;;;;;;;20.10;40.40;;;;;;5127925;27;20189;-52
2022/01/25 08:14:20;;;;;;;;;;;20.10;40.30;;;;;;5109335;27;19923;-54
2022/01/25 08:16:47;;;;;;;;;;;20.00;40.20;;;;;;5111477;27;19924;-48
2022/01/25 08:19:14;;;;;;;;;;;20.10;40.20;;;;;;5144036;27;19946;-48
2022/01/25 08:21:42;;;;;;;;;;;20.00;40.00;;;;;;5105325;27;19934;-46
2022/01/25 08:24:09;;;;;;;;;;;20.00;39.90;;;;;;5127119;27;20356;-48
2022/01/25 08:26:36;;;;;;;;;;;20.00;39.90;;;;;;5108618;27;20683;-51
2022/01/25 08:29:03;;;;;;;;;;;20.00;39.90;;;;;;5106502;27;19934;-45
2022/01/25 08:31:30;;;;;;;;;;;20.00;39.80;;;;;;5110095;27;19924;-52
2022/01/25 08:33:57;;;;;;;;;;;20.00;39.60;;;;;;5108895;27;19927;-48
2022/01/25 08:36:24;;;;;;;;;;;20.00;39.50;;;;;;5110859;27;19934;-50
2022/01/25 08:38:52;;;;;;;;;;;19.90;39.20;;;;;;5107357;27;20385;-51
2022/01/25 08:41:19;;;;;;;;;;;19.90;39.10;;;;;;5109727;27;19931;-52
2022/01/25 08:43:46;;;;;;;;;;;19.90;39.00;;;;;;5109552;27;20547;-49
2022/01/25 08:46:13;;;;;;;;;;;19.90;39.00;;;;;;5111218;27;19965;-50
2022/01/25 08:48:39;;;;;;;;;;;19.90;38.90;;;;;;5105900;27;19978;-47
2022/01/25 08:51:06;;;;;;;;;;;19.90;38.90;;;;;;5103859;27;19932;-51
2022/01/25 08:53:33;;;;;;;;;;;19.80;38.80;;;;;;5108062;27;20008;-55
2022/01/25 08:56:01;;;;;;;;;;;19.80;38.70;;;;;;5108959;27;19942;-49
2022/01/25 08:58:28;;;;;;;;;;;19.80;38.70;;;;;;5108396;27;19927;-49
2022/01/25 09:00:54;;;;;;;;;;;19.80;38.60;;;;;;5109551;27;19955;-53
2022/01/25 09:03:21;;;;;;;;;;;19.80;38.60;;;;;;5107985;27;20079;-50
2022/01/25 09:05:48;;;;;;;;;;;19.80;38.60;;;;;;5108696;27;19923;-51
2022/01/25 09:08:20;;;;;;;;;;;19.80;38.50;;;;;;5106132;27;19950;-51
2022/01/25 09:10:47;;;;;;;;;;;19.80;38.70;;;;;;5109170;27;19927;-51
2022/01/25 09:13:15;;;;;;;;;;;19.80;38.70;;;;;;5109488;27;20064;-50
2022/01/25 09:15:42;;;;;;;;;;;19.80;38.90;;;;;;5122902;27;20007;-45
2022/01/25 09:18:09;;;;;;;;;;;19.80;39.00;;;;;;5121820;27;20022;-49
2022/01/25 09:20:35;;;;;;;;;;;19.80;39.00;;;;;;5128772;27;19924;-47
2022/01/25 09:23:02;;;;;;;;;;;19.80;39.10;;;;;;5128819;27;19923;-48
2022/01/25 09:25:29;;;;;;;;;;;19.70;39.10;;;;;;5121797;27;20260;-46
2022/01/25 09:27:55;;;;;;;;;;;19.80;39.10;;;;;;5121132;27;19923;-47
2022/01/25 09:30:24;;;;;;;;;;;19.80;39.20;;;;;;5108849;27;19991;-52
2022/01/25 09:32:50;;;;;;;;;;;19.80;39.30;;;;;;5104917;27;19919;-51
2022/01/25 09:35:17;;;;;;;;;;;19.70;39.20;;;;;;5107099;27;19923;-44
2022/01/25 09:37:44;;;;;;;;;;;19.80;39.30;;;;;;5101959;27;19931;-52
2022/01/25 09:40:12;;;;;;;;;;;19.80;39.40;;;;;;5103995;27;19935;-52
2022/01/25 09:42:39;;;;;;;;;;;19.80;39.40;;;;;;5107502;27;19934;-50
2022/01/25 09:45:06;;;;;;;;;;;19.80;39.40;;;;;;5104891;28;20035;-49
2022/01/25 09:47:35;;;;;;;;;;;19.70;39.30;;;;;;5105727;27;19924;-46
2022/01/25 09:50:01;;;;;;;;;;;19.80;39.40;;;;;;5106600;27;19927;-53
2022/01/25 09:52:28;;;;;;;;;;;19.80;39.40;;;;;;5107015;28;19924;-54
2022/01/25 09:54:55;;;;;;;;;;;19.80;39.50;;;;;;5106050;27;20026;-47
2022/01/25 09:57:22;;;;;;;;;;;19.80;39.50;;;;;;5138124;27;20093;-48
2022/01/25 09:59:49;;;;;;;;;;;19.80;39.50;;;;;;5107038;27;19931;-48
2022/01/25 10:02:30;;;;;;;;;;;19.80;39.50;;;;;;5101321;27;20352;-51
2022/01/25 10:04:58;;;;;;;;;;;19.80;39.40;;;;;;5121441;27;20026;-48
2022/01/25 10:07:29;;;;;;;;;;;19.80;39.40;;;;;;5104094;28;19949;-54
2022/01/25 10:09:55;;;;;;;;;;;19.80;39.20;;;;;;5102045;28;19927;-45
2022/01/25 10:12:23;;;;;;;;;;;19.70;39.00;;;;;;5104117;28;19934;-49
2022/01/25 10:14:54;;;;;;;;;;;19.70;39.00;;;;;;5104557;28;19938;-47
2022/01/25 10:17:29;;;;;;;;;;;19.70;39.00;;;;;;5098986;28;19927;-49
2022/01/25 10:19:56;;;;;;;;;;;19.70;38.90;;;;;;5088391;28;20367;-47
2022/01/25 10:22:24;;;;;;;;;;;19.70;38.90;;;;;;5105132;28;20006;-45
2022/01/25 10:24:51;;;;;;;;;;;19.70;38.80;;;;;;5123567;28;20029;-50
2022/01/25 10:30:07;;;;;;;;;;;19.70;39.30;;;;;;5110705;27;19945;-50
2022/01/25 10:32:35;;;;;;;;;;;19.70;39.50;;;;;;5112807;27;19972;-45
2022/01/25 10:35:06;;;;;;;;;;;19.70;39.60;;;;;;5108960;27;19972;-45
2022/01/25 10:37:41;;;;;;;;;;;19.70;39.60;;;;;;5109912;27;19934;-48
2022/01/25 10:40:08;;;;;;;;;;;19.70;39.70;;;;;;5110929;27;19987;-45
2022/01/25 10:42:36;;;;;;;;;;;19.70;39.70;;;;;;5107664;27;19934;-50
2022/01/25 10:45:04;;;;;;;;;;;19.80;39.90;;;;;;5111769;27;19954;-46
2022/01/25 10:47:49;;;;;;;;;;;19.80;39.90;;;;;;5129992;27;19951;-49
2022/01/25 10:50:16;;;;;;;;;;;19.80;40.00;;;;;;5110496;27;19930;-49
2022/01/25 10:52:44;;;;;;;;;;;19.80;40.00;;;;;;5110538;27;19930;-44
2022/01/25 10:55:11;;;;;;;;;;;19.80;40.10;;;;;;5104763;27;20436;-44
2022/01/25 10:57:38;;;;;;;;;;;19.80;40.10;;;;;;5132036;27;19946;-49
2022/01/25 11:00:06;;;;;;;;;;;19.90;40.20;;;;;;5107942;27;19927;-42
2022/01/25 11:02:35;;;;;;;;;;;19.90;40.20;;;;;;5113336;27;19931;-45
2022/01/25 11:05:04;;;;;;;;;;;19.90;40.20;;;;;;5109080;27;19930;-45
2022/01/25 11:07:36;;;;;;;;;;;19.90;40.30;;;;;;5109677;27;19923;-48
2022/01/25 11:10:04;;;;;;;;;;;19.90;40.30;;;;;;5111124;27;19924;-44
2022/01/25 11:12:36;;;;;;;;;;;19.90;40.30;;;;;;5128086;27;19970;-50
2022/01/25 11:15:03;;;;;;;;;;;19.90;40.40;;;;;;5125163;27;19927;-47
2022/01/25 11:17:30;;;;;;;;;;;19.90;40.40;;;;;;5112972;27;20064;-44
2022/01/25 11:19:57;;;;;;;;;;;20.00;40.50;;;;;;5111886;27;19976;-45
2022/01/25 11:22:24;;;;;;;;;;;20.00;40.50;;;;;;5108933;27;20272;-44
2022/01/25 11:24:51;;;;;;;;;;;20.00;40.50;;;;;;5110548;27;20260;-43
2022/01/25 11:27:22;;;;;;;;;;;20.00;40.60;;;;;;5106676;27;20030;-48
2022/01/25 11:29:50;;;;;;;;;;;20.00;40.60;;;;;;5144664;27;20384;-45
2022/01/25 11:32:20;;;;;;;;;;;20.00;40.60;;;;;;5127934;27;19927;-45
2022/01/25 11:34:47;;;;;;;;;;;20.00;40.60;;;;;;5111051;27;19963;-47
2022/01/25 11:37:13;;;;;;;;;;;20.00;40.60;;;;;;5114493;27;19969;-48
2022/01/25 11:39:40;;;;;;;;;;;20.00;40.60;;;;;;5109458;28;19973;-46
2022/01/25 11:42:08;;;;;;;;;;;20.00;41.20;;;;;;5109987;27;19934;-45
2022/01/25 11:44:36;;;;;;;;;;;20.00;40.70;;;;;;5128377;27;19924;-45
2022/01/25 11:47:09;;;;;;;;;;;20.00;40.70;;;;;;5107794;27;20018;-45
2022/01/25 11:49:36;;;;;;;;;;;20.00;40.70;;;;;;5106363;27;20387;-47
2022/01/25 11:52:07;;;;;;;;;;;20.10;40.80;;;;;;5106968;27;19962;-44
2022/01/25 11:54:33;;;;;;;;;;;20.00;40.70;;;;;;5104249;27;19942;-47
2022/01/25 11:57:08;;;;;;;;;;;20.10;40.90;;;;;;5119300;27;20323;-47
2022/01/25 11:59:37;;;;;;;;;;;20.10;40.90;;;;;;5109565;27;19924;-48
2022/01/25 12:02:04;;;;;;;;;;;;;;;;;;5110054;27;19971;-45
2022/01/25 12:04:31;;;;;;;;;;;20.10;40.30;;;;;;5110827;27;19927;-44
2022/01/25 12:07:02;;;;;;;;;;;20.10;40.90;;;;;;5107746;27;19928;-45
2022/01/25 12:09:44;;;;;;;;;;;20.10;40.90;;;;;;5090063;27;19972;-47
2022/01/25 12:12:11;;;;;;;;;;;20.10;40.90;;;;;;5107232;27;20138;-50
2022/01/25 12:14:43;;;;;;;;;;;20.10;40.90;;;;;;5110582;27;19923;-45
2022/01/25 12:17:12;;;;;;;;;;;20.10;40.90;;;;;;5105038;27;19976;-49
2022/01/25 12:19:44;;;;;;;;;;;20.10;40.90;;;;;;5097489;27;20266;-47
2022/01/25 12:22:15;;;;;;;;;;;20.20;41.10;;;;;;5104236;27;20380;-47
2022/01/25 12:24:50;;;;;;;;;;;20.10;41.00;;;;;;5117276;27;19923;-50
2022/01/25 12:27:21;;;;;;;;;;;20.20;41.10;;;;;;5106459;27;19963;-47
2022/01/25 12:29:58;;;;;;;;;;;20.20;41.10;;;;;;5111782;27;19933;-43
2022/01/25 12:32:26;;;;;;;;;;;20.20;41.10;;;;;;5119634;27;19923;-46
2022/01/25 12:35:14;;;;;;;;;;;20.20;41.10;;;;;;5108121;27;20417;-45
2022/01/25 12:38:00;;;;;;;;;;;20.20;41.10;;;;;;5109501;27;20031;-46
2022/01/25 12:40:31;;;;;;;;;;;20.20;41.10;;;;;;5111404;27;19962;-44
2022/01/25 12:42:59;;;;;;;;;;;20.20;41.20;;;;;;5106952;27;19924;-45
2022/01/25 12:45:28;;;;;;;;;;;20.20;41.10;;;;;;5096808;27;19923;-47
2022/01/25 12:47:55;;;;;;;;;;;20.20;41.20;;;;;;5130217;27;19980;-45
2022/01/25 12:50:21;;;;;;;;;;;20.20;41.20;;;;;;5103140;27;20463;-50
2022/01/25 12:52:49;;;;;;;;;;;20.20;41.20;;;;;;5112136;27;19927;-47
2022/01/25 12:55:16;;;;;;;;;;;20.20;41.20;;;;;;5114241;27;20459;-48
2022/01/25 12:57:46;;;;;;;;;;;20.20;41.20;;;;;;5106524;27;20010;-43
2022/01/25 13:00:13;;;;;;;;;;;20.20;41.20;;;;;;5101968;27;20473;-44
2022/01/25 13:02:42;;;;;;;;;;;20.20;41.20;;;;;;5126818;27;19923;-45
2022/01/25 13:05:14;;;;;;;;;;;20.20;41.20;;;;;;5103914;27;19988;-46
2022/01/25 13:07:41;;;;;;;;;;;20.20;41.30;;;;;;5128129;27;19923;-46
2022/01/25 13:10:10;;;;;;;;;;;20.20;41.30;;;;;;5108080;27;20356;-45
2022/01/25 13:12:54;;;;;;;;;;;20.30;41.30;;;;;;5129360;27;19985;-46
2022/01/25 13:15:38;;;;;;;;;;;20.30;41.40;;;;;;5106504;27;19930;-46
2022/01/25 13:18:10;;;;;;;;;;;20.30;41.40;;;;;;5110372;27;19923;-46
2022/01/25 13:20:38;;;;;;;;;;;20.20;41.40;;;;;;5129391;27;19951;-43
2022/01/25 13:23:06;;;;;;;;;;;20.20;41.30;;;;;;5109123;27;19935;-47
2022/01/25 13:25:35;;;;;;;;;;;20.30;41.40;;;;;;5113031;27;19942;-47
2022/01/25 13:28:13;;;;;;;;;;;20.30;41.50;;;;;;5128788;27;19976;-48
2022/01/25 13:30:41;;;;;;;;;;;20.30;41.50;;;;;;5111523;27;19973;-49
2022/01/25 13:33:09;;;;;;;;;;;20.30;41.50;;;;;;5109472;27;19953;-44
2022/01/25 13:35:37;;;;;;;;;;;20.30;41.50;;;;;;5129398;27;20346;-46
2022/01/25 13:38:06;;;;;;;;;;;20.30;41.50;;;;;;5100638;27;19930;-44
2022/01/25 13:40:43;;;;;;;;;;;20.30;41.60;;;;;;5109149;27;20022;-46
2022/01/25 13:43:31;;;;;;;;;;;20.30;41.60;;;;;;5104783;27;20207;-46
2022/01/25 13:45:58;;;;;;;;;;;20.30;41.60;;;;;;5110178;27;20346;-45
2022/01/25 13:48:27;;;;;;;;;;;20.30;41.60;;;;;;5108772;27;20318;-45
2022/01/25 13:50:54;;;;;;;;;;;20.30;41.60;;;;;;5112290;27;19931;-46
2022/01/25 13:53:21;;;;;;;;;;;20.30;42.20;;;;;;5115913;27;19930;-47
2022/01/25 13:55:48;;;;;;;;;;;20.30;41.60;;;;;;5107442;27;19928;-44
2022/01/25 13:58:22;;;;;;;;;;;20.30;41.60;;;;;;5109455;27;19923;-44
2022/01/25 14:00:50;;;;;;;;;;;20.30;41.70;;;;;;5110546;27;19924;-47
2022/01/25 14:03:17;;;;;;;;;;;20.30;41.60;;;;;;5129143;27;19939;-47
2022/01/25 14:05:45;;;;;;;;;;;20.40;41.70;;;;;;5145542;27;20031;-48
2022/01/25 14:08:12;;;;;;;;;;;20.30;41.70;;;;;;5107140;28;19989;-45
2022/01/25 14:10:44;;;;;;;;;;;20.30;41.70;;;;;;5110219;28;19935;-46
2022/01/25 14:21:54;;;;;;;;;;;20.30;41.70;;;;;;5125678;27;19931;-46
2022/01/25 14:24:28;;;;;;;;;;;20.30;41.70;;;;;;5125931;28;19927;-46
2022/01/25 14:26:57;;;;;;;;;;;20.30;41.80;;;;;;5124585;28;19934;-50
2022/01/25 14:29:24;;;;;;;;;;;20.40;41.90;;;;;;5106267;28;19924;-45
2022/01/25 14:31:51;;;;;;;;;;;20.40;41.80;;;;;;5109478;28;19930;-46
2022/01/25 14:34:18;;;;;;;;;;;20.40;41.90;;;;;;5127117;28;19923;-48
2022/01/25 14:36:48;;;;;;;;;;;20.40;41.90;;;;;;5111384;28;19927;-46
2022/01/25 14:39:15;;;;;;;;;;;20.40;41.90;;;;;;5108037;28;19935;-51
2022/01/25 14:41:42;;;;;;;;;;;20.40;41.90;;;;;;5126325;28;19927;-51
2022/01/25 14:44:09;;;;;;;;;;;20.40;41.90;;;;;;5125930;28;19971;-48
2022/01/25 14:46:37;;;;;;;;;;;20.40;41.90;;;;;;5108218;28;19967;-48
2022/01/25 14:49:06;;;;;;;;;;;20.40;42.00;;;;;;5105384;28;19933;-48
2022/01/25 14:51:34;;;;;;;;;;;20.40;41.90;;;;;;5125723;28;20022;-47
2022/01/25 14:54:16;;;;;;;;;;;20.40;41.90;;;;;;5121285;28;19959;-44
2022/01/25 14:56:48;;;;;;;;;;;20.40;41.90;;;;;;5110586;28;20018;-44
2022/01/25 14:59:25;;;;;;;;;;;20.40;41.90;;;;;;5127371;28;19992;-43
2022/01/25 15:01:53;;;;;;;;;;;20.40;41.90;;;;;;5108942;28;20261;-45
2022/01/25 15:04:19;;;;;;;;;;;20.40;41.90;;;;;;5131602;27;19931;-44
2022/01/25 15:06:46;;;;;;;;;;;20.40;41.90;;;;;;5106414;28;20006;-46
2022/01/25 15:09:16;;;;;;;;;;;20.40;41.90;;;;;;5106935;28;20022;-45
2022/01/25 15:11:43;;;;;;;;;;;20.40;41.90;;;;;;5125911;28;19923;-46
2022/01/25 15:14:17;;;;;;;;;;;20.40;42.00;;;;;;5111383;28;19927;-44
2022/01/25 15:16:44;;;;;;;;;;;20.40;42.00;;;;;;5126434;27;19972;-46
2022/01/25 15:19:13;;;;;;;;;;;20.40;42.00;;;;;;5109701;27;19980;-46
2022/01/25 15:21:41;;;;;;;;;;;20.40;42.00;;;;;;5146727;27;19930;-43
2022/01/25 15:24:08;;;;;;;;;;;20.40;42.00;;;;;;5125161;27;20555;-45
2022/01/25 15:26:42;;;;;;;;;;;20.40;42.10;;;;;;5111351;27;19919;-45
2022/01/25 15:29:10;;;;;;;;;;;20.40;42.00;;;;;;5109264;27;20363;-43
2022/01/25 15:31:37;;;;;;;;;;;20.40;42.00;;;;;;5107572;27;20484;-46
2022/01/25 15:34:04;;;;;;;;;;;20.40;42.00;;;;;;5124638;27;20010;-49
2022/01/25 15:36:31;;;;;;;;;;;20.40;42.00;;;;;;5127797;27;19923;-45
2022/01/25 15:38:58;;;;;;;;;;;20.40;42.00;;;;;;5126594;27;19958;-44
2022/01/25 15:41:25;;;;;;;;;;;20.50;42.20;;;;;;5126088;27;19923;-47
2022/01/25 15:43:55;;;;;;;;;;;20.40;42.10;;;;;;5109799;27;19924;-43
2022/01/25 15:46:26;;;;;;;;;;;20.40;42.10;;;;;;5105979;27;19931;-46
2022/01/25 15:48:53;;;;;;;;;;;20.50;42.20;;;;;;5141803;27;20292;-46
2022/01/25 15:51:20;;;;;;;;;;;20.50;42.20;;;;;;5124659;27;19970;-42
2022/01/25 15:53:47;;;;;;;;;;;20.40;42.10;;;;;;5127514;27;20022;-47
2022/01/25 15:56:14;;;;;;;;;;;20.40;42.10;;;;;;5109619;27;19923;-55
2022/01/25 15:58:41;;;;;;;;;;;20.40;42.00;;;;;;5113076;27;20487;-52